sensor_id;sensor_type;location;lat;lon;timestamp;pressure;altitude;pressure_sealevel;temperature;humidity
75745;BME280;64359;51.366;-0.222;2023-07-29T00:01:03;100308.80;;;24.04;59.26
75745;BME280;64359;51.366;-0.222;2023-07-29T00:02:07;100306.70;;;24.05;59.53
75745;BME280;64359;51.366;-0.222;2023-07-29T00:03:12;100299.22;;;24.02;59.47
75745;BME280;64359;51.366;-0.222;2023-07-29T00:04:16;100303.96;;;24.06;59.32
75745;BME280;64359;51.366;-0.222;2023-07-29T00:05:22;100303.21;;;24.06;59.32
75745;BME280;64359;51.366;-0.222;2023-07-29T00:06:26;100309.61;;;24.07;59.37
75745;BME280;64359;51.366;-0.222;2023-07-29T00:07:31;100301.02;;;24.07;59.26
75745;BME280;64359;51.366;-0.222;2023-07-29T00:08:35;100307.89;;;24.07;59.37
75745;BME280;64359;51.366;-0.222;2023-07-29T00:09:40;100308.05;;;24.07;59.10
75745;BME280;64359;51.366;-0.222;2023-07-29T00:10:45;100310.56;;;24.08;59.26
75745;BME280;64359;51.366;-0.222;2023-07-29T00:11:49;100307.29;;;24.08;59.22
75745;BME280;64359;51.366;-0.222;2023-07-29T00:12:54;100309.48;;;24.08;59.31
75745;BME280;64359;51.366;-0.222;2023-07-29T00:13:58;100309.05;;;24.08;59.12
75745;BME280;64359;51.366;-0.222;2023-07-29T00:15:03;100305.61;;;24.08;58.98
75745;BME280;64359;51.366;-0.222;2023-07-29T00:16:09;100305.28;;;24.08;59.04
75745;BME280;64359;51.366;-0.222;2023-07-29T00:17:13;100302.89;;;24.08;59.03
75745;BME280;64359;51.366;-0.222;2023-07-29T00:18:18;100305.11;;;24.08;59.15
75745;BME280;64359;51.366;-0.222;2023-07-29T00:19:22;100303.65;;;24.08;59.03
75745;BME280;64359;51.366;-0.222;2023-07-29T00:20:27;100310.55;;;24.08;59.13
75745;BME280;64359;51.366;-0.222;2023-07-29T00:21:32;100311.36;;;24.07;59.27
75745;BME280;64359;51.366;-0.222;2023-07-29T00:22:37;100310.69;;;24.07;59.22
75745;BME280;64359;51.366;-0.222;2023-07-29T00:23:42;100304.25;;;24.06;58.95
75745;BME280;64359;51.366;-0.222;2023-07-29T00:24:46;100313.50;;;24.06;58.93
75745;BME280;64359;51.366;-0.222;2023-07-29T00:25:55;100313.21;;;24.06;59.02
75745;BME280;64359;51.366;-0.222;2023-07-29T00:26:59;100317.40;;;24.06;59.10
75745;BME280;64359;51.366;-0.222;2023-07-29T00:28:04;100314.10;;;24.05;59.17
75745;BME280;64359;51.366;-0.222;2023-07-29T00:29:08;100315.90;;;24.05;59.09
75745;BME280;64359;51.366;-0.222;2023-07-29T00:30:13;100314.48;;;24.05;58.97
75745;BME280;64359;51.366;-0.222;2023-07-29T00:31:18;100317.41;;;24.05;59.14
75745;BME280;64359;51.366;-0.222;2023-07-29T00:32:22;100317.17;;;24.04;58.92
75745;BME280;64359;51.366;-0.222;2023-07-29T00:33:26;100313.02;;;24.03;59.01
75745;BME280;64359;51.366;-0.222;2023-07-29T00:34:31;100317.80;;;24.03;59.18
75745;BME280;64359;51.366;-0.222;2023-07-29T00:35:35;100310.05;;;24.03;59.15
75745;BME280;64359;51.366;-0.222;2023-07-29T00:36:39;100308.19;;;24.02;59.01
75745;BME280;64359;51.366;-0.222;2023-07-29T00:37:44;100305.97;;;24.02;58.98
75745;BME280;64359;51.366;-0.222;2023-07-29T00:38:48;100305.14;;;24.02;59.02
75745;BME280;64359;51.366;-0.222;2023-07-29T00:39:53;100301.79;;;24.01;59.04
75745;BME280;64359;51.366;-0.222;2023-07-29T00:40:58;100308.65;;;24.01;59.13
75745;BME280;64359;51.366;-0.222;2023-07-29T00:42:05;100307.06;;;24.01;59.06
75745;BME280;64359;51.366;-0.222;2023-07-29T00:43:09;100302.80;;;24.00;59.22
75745;BME280;64359;51.366;-0.222;2023-07-29T00:44:13;100307.78;;;24.00;59.13
75745;BME280;64359;51.366;-0.222;2023-07-29T00:45:18;100310.34;;;24.00;58.95
75745;BME280;64359;51.366;-0.222;2023-07-29T00:46:23;100310.09;;;23.99;59.24
75745;BME280;64359;51.366;-0.222;2023-07-29T00:47:28;100308.63;;;23.99;58.96
75745;BME280;64359;51.366;-0.222;2023-07-29T00:48:32;100311.98;;;23.98;58.93
75745;BME280;64359;51.366;-0.222;2023-07-29T00:49:37;100309.46;;;23.98;59.03
75745;BME280;64359;51.366;-0.222;2023-07-29T00:50:41;100310.44;;;23.98;59.18
75745;BME280;64359;51.366;-0.222;2023-07-29T00:51:46;100310.27;;;23.97;59.36
75745;BME280;64359;51.366;-0.222;2023-07-29T00:52:50;100315.20;;;23.99;59.32
75745;BME280;64359;51.366;-0.222;2023-07-29T00:53:54;100319.38;;;24.00;59.13
75745;BME280;64359;51.366;-0.222;2023-07-29T00:54:59;100314.60;;;24.00;59.29
75745;BME280;64359;51.366;-0.222;2023-07-29T00:56:03;100313.63;;;24.00;59.13
75745;BME280;64359;51.366;-0.222;2023-07-29T00:57:09;100308.86;;;24.01;59.24
75745;BME280;64359;51.366;-0.222;2023-07-29T00:58:16;100308.44;;;24.01;59.17
75745;BME280;64359;51.366;-0.222;2023-07-29T00:59:21;100308.05;;;24.01;59.10
75745;BME280;64359;51.366;-0.222;2023-07-29T01:00:26;100305.85;;;24.02;59.23
75745;BME280;64359;51.366;-0.222;2023-07-29T01:01:30;100313.37;;;24.02;59.19
75745;BME280;64359;51.366;-0.222;2023-07-29T01:02:35;100313.12;;;24.01;59.40
75745;BME280;64359;51.366;-0.222;2023-07-29T01:03:40;100311.12;;;24.02;59.25
75745;BME280;64359;51.366;-0.222;2023-07-29T01:04:44;100315.30;;;24.02;59.03
75745;BME280;64359;51.366;-0.222;2023-07-29T01:06:01;100313.05;;;24.01;59.16
75745;BME280;64359;51.366;-0.222;2023-07-29T01:07:17;100309.37;;;24.00;59.25
75745;BME280;64359;51.366;-0.222;2023-07-29T01:08:30;100308.54;;;23.99;59.27
75745;BME280;64359;51.366;-0.222;2023-07-29T01:09:44;100303.81;;;23.98;59.18
75745;BME280;64359;51.366;-0.222;2023-07-29T01:11:01;100298.30;;;23.97;59.24
75745;BME280;64359;51.366;-0.222;2023-07-29T01:12:11;100297.35;;;23.97;59.26
75745;BME280;64359;51.366;-0.222;2023-07-29T01:13:22;100294.51;;;23.95;59.36
75745;BME280;64359;51.366;-0.222;2023-07-29T01:14:34;100296.30;;;23.95;59.17
75745;BME280;64359;51.366;-0.222;2023-07-29T01:15:45;100294.23;;;23.94;59.30
75745;BME280;64359;51.366;-0.222;2023-07-29T01:16:55;100293.94;;;23.94;59.30
75745;BME280;64359;51.366;-0.222;2023-07-29T01:18:05;100291.47;;;23.93;59.17
75745;BME280;64359;51.366;-0.222;2023-07-29T01:19:19;100292.43;;;23.93;59.25
75745;BME280;64359;51.366;-0.222;2023-07-29T01:20:34;100290.82;;;23.92;59.18
75745;BME280;64359;51.366;-0.222;2023-07-29T01:21:42;100292.37;;;23.91;59.26
75745;BME280;64359;51.366;-0.222;2023-07-29T01:22:46;100284.67;;;23.89;59.32
75745;BME280;64359;51.366;-0.222;2023-07-29T01:23:56;100290.73;;;23.91;59.13
75745;BME280;64359;51.366;-0.222;2023-07-29T01:25:02;100291.23;;;23.90;59.24
75745;BME280;64359;51.366;-0.222;2023-07-29T01:26:06;100286.57;;;23.87;59.16
75745;BME280;64359;51.366;-0.222;2023-07-29T01:27:11;100286.95;;;23.89;59.23
75745;BME280;64359;51.366;-0.222;2023-07-29T01:28:15;100287.08;;;23.89;59.07
75745;BME280;64359;51.366;-0.222;2023-07-29T01:29:20;100287.67;;;23.89;59.00
75745;BME280;64359;51.366;-0.222;2023-07-29T01:30:28;100284.13;;;23.86;59.21
75745;BME280;64359;51.366;-0.222;2023-07-29T01:31:37;100287.09;;;23.88;59.11
75745;BME280;64359;51.366;-0.222;2023-07-29T01:32:51;100285.38;;;23.87;59.23
75745;BME280;64359;51.366;-0.222;2023-07-29T01:34:01;100280.04;;;23.84;59.08
75745;BME280;64359;51.366;-0.222;2023-07-29T01:35:15;100284.30;;;23.86;59.24
75745;BME280;64359;51.366;-0.222;2023-07-29T01:36:25;100284.92;;;23.85;59.32
75745;BME280;64359;51.366;-0.222;2023-07-29T01:37:33;100282.13;;;23.85;59.39
75745;BME280;64359;51.366;-0.222;2023-07-29T01:38:40;100285.39;;;23.85;59.27
75745;BME280;64359;51.366;-0.222;2023-07-29T01:39:46;100271.98;;;23.77;59.29
75745;BME280;64359;51.366;-0.222;2023-07-29T01:40:52;100282.42;;;23.84;59.08
75745;BME280;64359;51.366;-0.222;2023-07-29T01:41:57;100282.10;;;23.84;59.20
75745;BME280;64359;51.366;-0.222;2023-07-29T01:43:01;100281.23;;;23.83;59.08
75745;BME280;64359;51.366;-0.222;2023-07-29T01:44:07;100283.86;;;23.83;59.10
75745;BME280;64359;51.366;-0.222;2023-07-29T01:45:12;100283.73;;;23.84;59.23
75745;BME280;64359;51.366;-0.222;2023-07-29T01:46:16;100282.93;;;23.84;59.21
75745;BME280;64359;51.366;-0.222;2023-07-29T01:47:26;100280.54;;;23.84;59.41
75745;BME280;64359;51.366;-0.222;2023-07-29T01:48:30;100282.54;;;23.86;59.36
75745;BME280;64359;51.366;-0.222;2023-07-29T01:49:35;100282.88;;;23.86;59.36
75745;BME280;64359;51.366;-0.222;2023-07-29T01:50:39;100281.53;;;23.86;59.24
75745;BME280;64359;51.366;-0.222;2023-07-29T01:51:43;100278.67;;;23.87;59.04
75745;BME280;64359;51.366;-0.222;2023-07-29T01:52:48;100280.44;;;23.88;59.11
75745;BME280;64359;51.366;-0.222;2023-07-29T01:53:52;100278.75;;;23.88;59.15
75745;BME280;64359;51.366;-0.222;2023-07-29T01:54:58;100281.10;;;23.88;59.05
75745;BME280;64359;51.366;-0.222;2023-07-29T01:56:03;100275.10;;;23.84;59.11
75745;BME280;64359;51.366;-0.222;2023-07-29T01:57:07;100284.15;;;23.88;59.05
75745;BME280;64359;51.366;-0.222;2023-07-29T01:58:11;100285.88;;;23.89;59.04
75745;BME280;64359;51.366;-0.222;2023-07-29T01:59:16;100284.44;;;23.89;58.81
75745;BME280;64359;51.366;-0.222;2023-07-29T02:00:20;100285.77;;;23.88;59.15
75745;BME280;64359;51.366;-0.222;2023-07-29T02:01:25;100285.07;;;23.88;59.04
75745;BME280;64359;51.366;-0.222;2023-07-29T02:02:29;100286.87;;;23.88;58.93
75745;BME280;64359;51.366;-0.222;2023-07-29T02:03:34;100287.67;;;23.87;58.98
75745;BME280;64359;51.366;-0.222;2023-07-29T02:04:38;100290.06;;;23.88;58.68
75745;BME280;64359;51.366;-0.222;2023-07-29T02:05:42;100290.45;;;23.87;59.00
75745;BME280;64359;51.366;-0.222;2023-07-29T02:06:47;100290.11;;;23.87;58.89
75745;BME280;64359;51.366;-0.222;2023-07-29T02:07:52;100286.91;;;23.84;58.92
75745;BME280;64359;51.366;-0.222;2023-07-29T02:08:57;100294.21;;;23.86;59.05
75745;BME280;64359;51.366;-0.222;2023-07-29T02:10:01;100293.54;;;23.86;58.94
75745;BME280;64359;51.366;-0.222;2023-07-29T02:11:06;100290.61;;;23.86;58.91
75745;BME280;64359;51.366;-0.222;2023-07-29T02:12:10;100291.58;;;23.86;58.83
75745;BME280;64359;51.366;-0.222;2023-07-29T02:13:15;100290.58;;;23.85;58.96
75745;BME280;64359;51.366;-0.222;2023-07-29T02:14:19;100288.33;;;23.84;58.89
75745;BME280;64359;51.366;-0.222;2023-07-29T02:15:23;100289.25;;;23.84;58.89
75745;BME280;64359;51.366;-0.222;2023-07-29T02:16:28;100290.05;;;23.84;59.00
75745;BME280;64359;51.366;-0.222;2023-07-29T02:17:33;100290.96;;;23.84;58.95
75745;BME280;64359;51.366;-0.222;2023-07-29T02:18:37;100291.55;;;23.83;59.09
75745;BME280;64359;51.366;-0.222;2023-07-29T02:19:41;100287.67;;;23.83;59.21
75745;BME280;64359;51.366;-0.222;2023-07-29T02:20:46;100288.64;;;23.82;59.04
75745;BME280;64359;51.366;-0.222;2023-07-29T02:21:52;100287.21;;;23.82;59.02
75745;BME280;64359;51.366;-0.222;2023-07-29T02:22:56;100285.63;;;23.82;59.00
75745;BME280;64359;51.366;-0.222;2023-07-29T02:24:00;100285.92;;;23.81;59.01
75745;BME280;64359;51.366;-0.222;2023-07-29T02:25:06;100292.17;;;23.80;59.11
75745;BME280;64359;51.366;-0.222;2023-07-29T02:26:10;100289.20;;;23.80;59.12
75745;BME280;64359;51.366;-0.222;2023-07-29T02:27:15;100289.41;;;23.79;59.16
75745;BME280;64359;51.366;-0.222;2023-07-29T02:28:19;100283.18;;;23.79;59.38
75745;BME280;64359;51.366;-0.222;2023-07-29T02:29:23;100278.55;;;23.78;59.16
75745;BME280;64359;51.366;-0.222;2023-07-29T02:30:28;100279.98;;;23.77;59.12
75745;BME280;64359;51.366;-0.222;2023-07-29T02:31:32;100281.56;;;23.77;59.14
75745;BME280;64359;51.366;-0.222;2023-07-29T02:32:39;100279.64;;;23.77;58.97
75745;BME280;64359;51.366;-0.222;2023-07-29T02:33:44;100279.14;;;23.77;59.12
75745;BME280;64359;51.366;-0.222;2023-07-29T02:34:48;100279.30;;;23.77;59.05
75745;BME280;64359;51.366;-0.222;2023-07-29T02:35:52;100278.68;;;23.76;59.10
75745;BME280;64359;51.366;-0.222;2023-07-29T02:36:57;100272.04;;;23.76;59.16
75745;BME280;64359;51.366;-0.222;2023-07-29T02:38:01;100270.08;;;23.75;59.17
75745;BME280;64359;51.366;-0.222;2023-07-29T02:39:05;100272.95;;;23.76;59.24
75745;BME280;64359;51.366;-0.222;2023-07-29T02:40:11;100272.75;;;23.76;59.18
75745;BME280;64359;51.366;-0.222;2023-07-29T02:41:15;100269.23;;;23.76;59.12
75745;BME280;64359;51.366;-0.222;2023-07-29T02:42:20;100269.85;;;23.77;59.29
75745;BME280;64359;51.366;-0.222;2023-07-29T02:43:24;100268.63;;;23.78;59.26
75745;BME280;64359;51.366;-0.222;2023-07-29T02:44:28;100267.02;;;23.79;59.12
75745;BME280;64359;51.366;-0.222;2023-07-29T02:45:33;100265.77;;;23.79;59.05
75745;BME280;64359;51.366;-0.222;2023-07-29T02:46:37;100263.14;;;23.79;58.95
75745;BME280;64359;51.366;-0.222;2023-07-29T02:47:41;100263.80;;;23.80;59.15
75745;BME280;64359;51.366;-0.222;2023-07-29T02:48:46;100261.25;;;23.80;59.10
75745;BME280;64359;51.366;-0.222;2023-07-29T02:49:50;100259.77;;;23.80;59.17
75745;BME280;64359;51.366;-0.222;2023-07-29T02:50:55;100262.29;;;23.80;58.87
75745;BME280;64359;51.366;-0.222;2023-07-29T02:51:59;100257.69;;;23.79;59.13
75745;BME280;64359;51.366;-0.222;2023-07-29T02:53:03;100257.60;;;23.80;59.12
75745;BME280;64359;51.366;-0.222;2023-07-29T02:54:08;100262.84;;;23.80;59.12
75745;BME280;64359;51.366;-0.222;2023-07-29T02:55:12;100256.88;;;23.76;59.04
75745;BME280;64359;51.366;-0.222;2023-07-29T02:56:16;100260.37;;;23.80;58.85
75745;BME280;64359;51.366;-0.222;2023-07-29T02:57:21;100258.61;;;23.79;59.06
75745;BME280;64359;51.366;-0.222;2023-07-29T02:58:25;100255.65;;;23.78;59.11
75745;BME280;64359;51.366;-0.222;2023-07-29T02:59:30;100255.65;;;23.78;58.88
75745;BME280;64359;51.366;-0.222;2023-07-29T03:00:34;100254.39;;;23.78;58.99
75745;BME280;64359;51.366;-0.222;2023-07-29T03:01:39;100252.64;;;23.78;59.09
75745;BME280;64359;51.366;-0.222;2023-07-29T03:02:44;100254.32;;;23.78;58.80
75745;BME280;64359;51.366;-0.222;2023-07-29T03:03:48;100250.80;;;23.77;58.89
75745;BME280;64359;51.366;-0.222;2023-07-29T03:04:52;100250.10;;;23.77;58.93
75745;BME280;64359;51.366;-0.222;2023-07-29T03:06:00;100242.02;;;23.72;58.83
75745;BME280;64359;51.366;-0.222;2023-07-29T03:07:05;100246.67;;;23.75;59.11
75745;BME280;64359;51.366;-0.222;2023-07-29T03:08:09;100242.50;;;23.76;58.99
75745;BME280;64359;51.366;-0.222;2023-07-29T03:09:14;100242.33;;;23.75;58.98
75745;BME280;64359;51.366;-0.222;2023-07-29T03:10:18;100242.95;;;23.75;59.02
75745;BME280;64359;51.366;-0.222;2023-07-29T03:11:23;100243.64;;;23.74;58.80
75745;BME280;64359;51.366;-0.222;2023-07-29T03:12:28;100248.20;;;23.74;58.86
75745;BME280;64359;51.366;-0.222;2023-07-29T03:13:32;100244.98;;;23.73;58.84
75745;BME280;64359;51.366;-0.222;2023-07-29T03:14:36;100246.27;;;23.73;59.02
75745;BME280;64359;51.366;-0.222;2023-07-29T03:15:41;100245.98;;;23.73;59.16
75745;BME280;64359;51.366;-0.222;2023-07-29T03:16:45;100248.25;;;23.72;58.92
75745;BME280;64359;51.366;-0.222;2023-07-29T03:17:50;100242.63;;;23.68;59.02
75745;BME280;64359;51.366;-0.222;2023-07-29T03:18:54;100248.55;;;23.71;59.04
75745;BME280;64359;51.366;-0.222;2023-07-29T03:19:59;100247.22;;;23.71;58.98
75745;BME280;64359;51.366;-0.222;2023-07-29T03:21:03;100249.15;;;23.70;59.11
75745;BME280;64359;51.366;-0.222;2023-07-29T03:22:07;100251.66;;;23.70;58.95
75745;BME280;64359;51.366;-0.222;2023-07-29T03:23:12;100251.38;;;23.69;58.98
75745;BME280;64359;51.366;-0.222;2023-07-29T03:24:16;100251.20;;;23.69;58.89
75745;BME280;64359;51.366;-0.222;2023-07-29T03:25:20;100243.48;;;23.65;59.04
75745;BME280;64359;51.366;-0.222;2023-07-29T03:26:24;100245.61;;;23.68;59.16
75745;BME280;64359;51.366;-0.222;2023-07-29T03:27:29;100246.58;;;23.67;59.18
75745;BME280;64359;51.366;-0.222;2023-07-29T03:28:34;100249.51;;;23.67;58.99
75745;BME280;64359;51.366;-0.222;2023-07-29T03:29:38;100248.84;;;23.67;59.13
75745;BME280;64359;51.366;-0.222;2023-07-29T03:30:43;100249.80;;;23.66;59.01
75745;BME280;64359;51.366;-0.222;2023-07-29T03:31:47;100251.60;;;23.67;59.11
75745;BME280;64359;51.366;-0.222;2023-07-29T03:32:51;100252.94;;;23.66;58.99
75745;BME280;64359;51.366;-0.222;2023-07-29T03:33:55;100258.66;;;23.65;59.13
75745;BME280;64359;51.366;-0.222;2023-07-29T03:35:00;100256.70;;;23.65;58.94
75745;BME280;64359;51.366;-0.222;2023-07-29T03:36:05;100256.82;;;23.65;59.16
75745;BME280;64359;51.366;-0.222;2023-07-29T03:37:09;100253.34;;;23.66;59.03
75745;BME280;64359;51.366;-0.222;2023-07-29T03:38:13;100255.58;;;23.67;59.10
75745;BME280;64359;51.366;-0.222;2023-07-29T03:39:18;100255.40;;;23.67;59.14
75745;BME280;64359;51.366;-0.222;2023-07-29T03:40:22;100260.89;;;23.68;59.04
75745;BME280;64359;51.366;-0.222;2023-07-29T03:41:26;100263.02;;;23.68;59.22
75745;BME280;64359;51.366;-0.222;2023-07-29T03:42:31;100262.39;;;23.68;59.10
75745;BME280;64359;51.366;-0.222;2023-07-29T03:43:35;100264.14;;;23.69;59.09
75745;BME280;64359;51.366;-0.222;2023-07-29T03:44:39;100261.09;;;23.67;58.92
75745;BME280;64359;51.366;-0.222;2023-07-29T03:45:44;100264.43;;;23.69;58.96
75745;BME280;64359;51.366;-0.222;2023-07-29T03:46:48;100259.63;;;23.66;58.98
75745;BME280;64359;51.366;-0.222;2023-07-29T03:47:52;100263.17;;;23.69;59.01
75745;BME280;64359;51.366;-0.222;2023-07-29T03:48:57;100262.13;;;23.69;58.98
75745;BME280;64359;51.366;-0.222;2023-07-29T03:50:01;100261.92;;;23.69;59.03
75745;BME280;64359;51.366;-0.222;2023-07-29T03:51:06;100264.85;;;23.69;59.00
75745;BME280;64359;51.366;-0.222;2023-07-29T03:52:10;100262.05;;;23.68;58.78
75745;BME280;64359;51.366;-0.222;2023-07-29T03:53:14;100261.52;;;23.68;58.83
75745;BME280;64359;51.366;-0.222;2023-07-29T03:54:20;100260.35;;;23.66;58.96
75745;BME280;64359;51.366;-0.222;2023-07-29T03:55:24;100263.73;;;23.68;58.90
75745;BME280;64359;51.366;-0.222;2023-07-29T03:56:28;100264.95;;;23.67;59.00
75745;BME280;64359;51.366;-0.222;2023-07-29T03:57:32;100271.05;;;23.68;58.86
75745;BME280;64359;51.366;-0.222;2023-07-29T03:58:37;100274.56;;;23.67;58.85
75745;BME280;64359;51.366;-0.222;2023-07-29T03:59:41;100275.48;;;23.67;59.03
75745;BME280;64359;51.366;-0.222;2023-07-29T04:00:45;100275.37;;;23.66;58.79
75745;BME280;64359;51.366;-0.222;2023-07-29T04:01:50;100276.95;;;23.67;58.97
75745;BME280;64359;51.366;-0.222;2023-07-29T04:02:54;100275.61;;;23.66;58.85
75745;BME280;64359;51.366;-0.222;2023-07-29T04:03:58;100275.85;;;23.66;59.11
75745;BME280;64359;51.366;-0.222;2023-07-29T04:05:03;100279.20;;;23.65;58.97
75745;BME280;64359;51.366;-0.222;2023-07-29T04:06:07;100276.69;;;23.65;59.14
75745;BME280;64359;51.366;-0.222;2023-07-29T04:07:12;100274.93;;;23.64;59.00
75745;BME280;64359;51.366;-0.222;2023-07-29T04:08:16;100277.15;;;23.64;59.08
75745;BME280;64359;51.366;-0.222;2023-07-29T04:09:21;100278.71;;;23.63;59.07
75745;BME280;64359;51.366;-0.222;2023-07-29T04:10:26;100276.74;;;23.63;59.05
75745;BME280;64359;51.366;-0.222;2023-07-29T04:11:30;100273.57;;;23.62;59.04
75745;BME280;64359;51.366;-0.222;2023-07-29T04:12:34;100278.30;;;23.62;58.94
75745;BME280;64359;51.366;-0.222;2023-07-29T04:13:39;100274.45;;;23.62;58.84
75745;BME280;64359;51.366;-0.222;2023-07-29T04:14:43;100275.80;;;23.61;59.03
75745;BME280;64359;51.366;-0.222;2023-07-29T04:15:48;100276.17;;;23.61;59.13
75745;BME280;64359;51.366;-0.222;2023-07-29T04:16:52;100277.68;;;23.60;59.02
75745;BME280;64359;51.366;-0.222;2023-07-29T04:17:56;100277.40;;;23.60;59.00
75745;BME280;64359;51.366;-0.222;2023-07-29T04:19:01;100276.89;;;23.60;59.12
75745;BME280;64359;51.366;-0.222;2023-07-29T04:20:06;100273.09;;;23.59;58.99
75745;BME280;64359;51.366;-0.222;2023-07-29T04:21:11;100275.73;;;23.58;59.17
75745;BME280;64359;51.366;-0.222;2023-07-29T04:22:15;100271.77;;;23.59;59.08
75745;BME280;64359;51.366;-0.222;2023-07-29T04:23:20;100271.34;;;23.57;58.99
75745;BME280;64359;51.366;-0.222;2023-07-29T04:24:24;100275.03;;;23.57;58.79
75745;BME280;64359;51.366;-0.222;2023-07-29T04:25:29;100276.66;;;23.57;59.12
75745;BME280;64359;51.366;-0.222;2023-07-29T04:26:33;100279.80;;;23.57;59.10
75745;BME280;64359;51.366;-0.222;2023-07-29T04:27:37;100280.17;;;23.57;59.22
75745;BME280;64359;51.366;-0.222;2023-07-29T04:28:42;100280.34;;;23.57;59.16
75745;BME280;64359;51.366;-0.222;2023-07-29T04:29:46;100278.66;;;23.57;59.13
75745;BME280;64359;51.366;-0.222;2023-07-29T04:30:50;100278.41;;;23.59;59.05
75745;BME280;64359;51.366;-0.222;2023-07-29T04:31:55;100275.43;;;23.60;59.17
75745;BME280;64359;51.366;-0.222;2023-07-29T04:32:59;100272.63;;;23.60;59.14
75745;BME280;64359;51.366;-0.222;2023-07-29T04:34:04;100272.04;;;23.61;58.94
75745;BME280;64359;51.366;-0.222;2023-07-29T04:35:09;100274.55;;;23.61;58.98
75745;BME280;64359;51.366;-0.222;2023-07-29T04:36:13;100277.55;;;23.61;59.08
75745;BME280;64359;51.366;-0.222;2023-07-29T04:37:18;100269.98;;;23.61;59.06
75745;BME280;64359;51.366;-0.222;2023-07-29T04:38:23;100265.42;;;23.61;59.03
75745;BME280;64359;51.366;-0.222;2023-07-29T04:39:28;100262.70;;;23.61;58.94
75745;BME280;64359;51.366;-0.222;2023-07-29T04:40:35;100260.79;;;23.61;58.88
75745;BME280;64359;51.366;-0.222;2023-07-29T04:41:39;100261.48;;;23.61;59.10
75745;BME280;64359;51.366;-0.222;2023-07-29T04:42:44;100260.27;;;23.60;59.07
75745;BME280;64359;51.366;-0.222;2023-07-29T04:43:48;100260.49;;;23.60;58.97
75745;BME280;64359;51.366;-0.222;2023-07-29T04:44:53;100263.54;;;23.60;59.08
75745;BME280;64359;51.366;-0.222;2023-07-29T04:45:57;100265.42;;;23.60;58.76
75745;BME280;64359;51.366;-0.222;2023-07-29T04:47:02;100263.14;;;23.60;58.80
75745;BME280;64359;51.366;-0.222;2023-07-29T04:48:06;100263.67;;;23.59;58.86
75745;BME280;64359;51.366;-0.222;2023-07-29T04:49:11;100260.41;;;23.60;58.73
75745;BME280;64359;51.366;-0.222;2023-07-29T04:50:15;100259.04;;;23.59;58.66
75745;BME280;64359;51.366;-0.222;2023-07-29T04:51:20;100260.21;;;23.58;58.92
75745;BME280;64359;51.366;-0.222;2023-07-29T04:52:25;100260.42;;;23.58;58.83
75745;BME280;64359;51.366;-0.222;2023-07-29T04:53:30;100263.36;;;23.58;58.83
75745;BME280;64359;51.366;-0.222;2023-07-29T04:54:34;100265.61;;;23.57;58.93
75745;BME280;64359;51.366;-0.222;2023-07-29T04:55:38;100268.33;;;23.57;58.79
75745;BME280;64359;51.366;-0.222;2023-07-29T04:56:44;100266.12;;;23.56;58.83
75745;BME280;64359;51.366;-0.222;2023-07-29T04:57:48;100266.33;;;23.56;58.90
75745;BME280;64359;51.366;-0.222;2023-07-29T04:58:53;100258.08;;;23.52;58.85
75745;BME280;64359;51.366;-0.222;2023-07-29T04:59:57;100263.77;;;23.55;58.82
75745;BME280;64359;51.366;-0.222;2023-07-29T05:01:01;100259.66;;;23.54;58.78
75745;BME280;64359;51.366;-0.222;2023-07-29T05:02:06;100259.55;;;23.54;58.87
75745;BME280;64359;51.366;-0.222;2023-07-29T05:03:11;100261.17;;;23.54;58.96
75745;BME280;64359;51.366;-0.222;2023-07-29T05:04:16;100259.80;;;23.53;59.08
75745;BME280;64359;51.366;-0.222;2023-07-29T05:05:20;100255.87;;;23.53;58.88
75745;BME280;64359;51.366;-0.222;2023-07-29T05:06:25;100255.62;;;23.52;58.83
75745;BME280;64359;51.366;-0.222;2023-07-29T05:07:29;100255.16;;;23.51;58.92
75745;BME280;64359;51.366;-0.222;2023-07-29T05:08:33;100254.66;;;23.51;58.90
75745;BME280;64359;51.366;-0.222;2023-07-29T05:09:38;100258.89;;;23.51;59.04
75745;BME280;64359;51.366;-0.222;2023-07-29T05:10:42;100258.39;;;23.51;58.93
75745;BME280;64359;51.366;-0.222;2023-07-29T05:11:47;100259.73;;;23.50;58.96
75745;BME280;64359;51.366;-0.222;2023-07-29T05:12:52;100260.33;;;23.50;59.02
75745;BME280;64359;51.366;-0.222;2023-07-29T05:13:56;100260.38;;;23.49;59.08
75745;BME280;64359;51.366;-0.222;2023-07-29T05:15:00;100261.84;;;23.48;58.99
75745;BME280;64359;51.366;-0.222;2023-07-29T05:16:05;100259.31;;;23.47;58.85
75745;BME280;64359;51.366;-0.222;2023-07-29T05:17:10;100259.88;;;23.48;59.08
75745;BME280;64359;51.366;-0.222;2023-07-29T05:18:14;100257.95;;;23.47;59.02
75745;BME280;64359;51.366;-0.222;2023-07-29T05:19:18;100255.13;;;23.47;59.10
75745;BME280;64359;51.366;-0.222;2023-07-29T05:20:22;100258.92;;;23.47;59.09
75745;BME280;64359;51.366;-0.222;2023-07-29T05:21:27;100256.67;;;23.46;59.11
75745;BME280;64359;51.366;-0.222;2023-07-29T05:22:31;100257.42;;;23.46;59.03
75745;BME280;64359;51.366;-0.222;2023-07-29T05:23:35;100256.23;;;23.46;59.08
75745;BME280;64359;51.366;-0.222;2023-07-29T05:24:40;100255.07;;;23.49;59.15
75745;BME280;64359;51.366;-0.222;2023-07-29T05:25:44;100256.70;;;23.49;59.09
75745;BME280;64359;51.366;-0.222;2023-07-29T05:26:49;100252.71;;;23.50;59.11
75745;BME280;64359;51.366;-0.222;2023-07-29T05:27:53;100258.06;;;23.50;59.10
75745;BME280;64359;51.366;-0.222;2023-07-29T05:28:57;100260.36;;;23.51;58.96
75745;BME280;64359;51.366;-0.222;2023-07-29T05:30:02;100261.69;;;23.51;58.97
75745;BME280;64359;51.366;-0.222;2023-07-29T05:31:07;100264.49;;;23.52;59.07
75745;BME280;64359;51.366;-0.222;2023-07-29T05:32:11;100268.39;;;23.52;58.86
75745;BME280;64359;51.366;-0.222;2023-07-29T05:33:15;100268.47;;;23.52;58.85
75745;BME280;64359;51.366;-0.222;2023-07-29T05:34:20;100268.55;;;23.52;58.83
75745;BME280;64359;51.366;-0.222;2023-07-29T05:35:24;100267.80;;;23.52;58.66
75745;BME280;64359;51.366;-0.222;2023-07-29T05:36:28;100265.95;;;23.52;58.93